createdAt,value
2023-03-21T00:00:33.383Z,1.38
2023-03-21T00:03:01.628Z,1.30
2023-03-21T00:05:29.986Z,1.55
2023-03-21T00:07:59.503Z,1.30
2023-03-21T00:10:39.513Z,1.30
2023-03-21T00:13:09.193Z,1.30
2023-03-21T00:16:03.984Z,1.42
2023-03-21T00:18:36.769Z,1.20
2023-03-21T00:21:37.559Z,1.20
2023-03-21T00:23:55.260Z,1.25
2023-03-21T00:26:23.664Z,1.13
2023-03-21T00:28:52.157Z,1.25
2023-03-21T00:31:23.211Z,1.40
2023-03-21T00:33:51.471Z,1.20
2023-03-21T00:36:19.516Z,1.63
2023-03-21T00:38:47.469Z,1.42
2023-03-21T00:41:26.391Z,1.33
2023-03-21T00:44:04.154Z,1.40
2023-03-21T00:46:45.206Z,1.40
2023-03-21T00:49:15.070Z,1.60
2023-03-21T00:51:43.732Z,1.48
2023-03-21T00:54:13.575Z,1.50
2023-03-21T00:56:42.333Z,1.50
2023-03-21T00:59:11.150Z,1.40
2023-03-21T01:01:40.477Z,1.67
2023-03-21T01:04:13.652Z,1.40
2023-03-21T01:06:43.607Z,1.50
2023-03-21T01:09:14.724Z,1.27
2023-03-21T01:11:43.200Z,1.55
2023-03-21T01:14:23.283Z,1.63
2023-03-21T01:16:54.069Z,1.17
2023-03-21T01:19:40.701Z,1.40
2023-03-21T01:22:12.820Z,1.30
2023-03-21T01:24:52.400Z,1.70
2023-03-21T01:27:22.398Z,1.25
2023-03-21T01:29:50.581Z,1.20
2023-03-21T01:32:19.860Z,1.35
2023-03-21T01:34:47.846Z,1.30
2023-03-21T01:37:17.773Z,1.30
2023-03-21T01:39:49.456Z,1.42
2023-03-21T01:42:17.446Z,1.52
2023-03-21T01:44:55.457Z,1.63
2023-03-21T01:47:25.819Z,1.30
2023-03-21T01:50:06.262Z,1.48
2023-03-21T01:52:53.096Z,1.83
2023-03-21T01:55:29.522Z,1.40
2023-03-21T01:58:32.003Z,1.30
2023-03-21T02:01:23.816Z,1.50
2023-03-21T02:03:57.375Z,1.52
2023-03-21T02:06:52.111Z,1.40
2023-03-21T02:09:49.920Z,1.52
2023-03-21T02:12:21.685Z,1.60
2023-03-21T02:14:51.925Z,1.60
2023-03-21T02:17:42.420Z,1.70
2023-03-21T02:20:51.195Z,1.50
2023-03-21T02:23:54.634Z,1.60
2023-03-21T02:26:52.472Z,1.17
2023-03-21T02:29:57.919Z,0.98
2023-03-21T02:32:41.532Z,1.17
2023-03-21T02:35:39.120Z,1.60
2023-03-21T02:38:18.377Z,1.42
2023-03-21T02:40:54.678Z,1.50
2023-03-21T02:43:35.281Z,1.08
2023-03-21T02:46:08.303Z,1.70
2023-03-21T02:48:50.199Z,1.37
2023-03-21T02:51:23.497Z,1.13
2023-03-21T02:54:24.639Z,1.40
2023-03-21T02:56:47.191Z,2.00
2023-03-21T02:59:17.511Z,1.30
2023-03-21T03:01:46.100Z,1.43
2023-03-21T03:04:22.116Z,1.58
2023-03-21T03:07:09.589Z,1.20
2023-03-21T03:09:53.043Z,1.23
2023-03-21T03:12:31.042Z,1.33
2023-03-21T03:15:09.903Z,1.40
2023-03-21T03:17:49.516Z,1.33
2023-03-21T03:20:28.197Z,1.70
2023-03-21T03:23:06.245Z,1.67
2023-03-21T03:25:43.428Z,1.30
2023-03-21T03:28:18.049Z,1.33
2023-03-21T03:31:01.141Z,1.53
2023-03-21T03:33:41.499Z,1.03
2023-03-21T03:36:25.051Z,1.53
2023-03-21T03:39:04.668Z,1.57
2023-03-21T03:42:04.166Z,1.20
2023-03-21T03:44:33.849Z,1.30
2023-03-21T03:47:10.573Z,1.13
2023-03-21T03:49:44.078Z,1.10
2023-03-21T03:52:19.934Z,1.50
2023-03-21T03:54:53.886Z,0.98
2023-03-21T03:57:27.364Z,1.20
2023-03-21T03:59:57.030Z,1.23
2023-03-21T04:02:45.291Z,1.30
2023-03-21T04:05:21.479Z,1.20
2023-03-21T04:07:50.879Z,1.57
2023-03-21T04:10:22.681Z,1.30
2023-03-21T04:12:52.102Z,1.20
2023-03-21T04:15:28.758Z,1.30
2023-03-21T04:18:04.792Z,1.20
2023-03-21T04:20:37.406Z,1.20
2023-03-21T04:23:07.729Z,1.13
2023-03-21T04:25:38.614Z,1.20
2023-03-21T04:28:09.944Z,1.30
2023-03-21T04:30:58.753Z,1.20
2023-03-21T04:33:29.281Z,1.30
2023-03-21T04:35:59.136Z,1.60
2023-03-21T04:38:30.875Z,1.30
2023-03-21T04:41:03.285Z,1.27
2023-03-21T04:43:33.207Z,0.97
2023-03-21T04:46:01.176Z,1.10
2023-03-21T04:48:29.344Z,0.83
2023-03-21T04:50:57.861Z,1.10
2023-03-21T04:53:25.864Z,1.10
2023-03-21T04:55:55.573Z,1.50
2023-03-21T04:58:24.155Z,1.63
2023-03-21T05:00:53.600Z,1.30
2023-03-21T05:03:22.070Z,1.40
2023-03-21T05:05:50.883Z,1.27
2023-03-21T05:08:20.129Z,1.20
2023-03-21T05:10:48.319Z,1.00
2023-03-21T05:13:16.397Z,1.50
2023-03-21T05:15:44.297Z,1.30
2023-03-21T05:18:13.680Z,1.87
2023-03-21T05:21:00.079Z,1.43
2023-03-21T05:23:31.819Z,1.17
2023-03-21T05:26:00.087Z,1.30
2023-03-21T05:28:40.944Z,1.20
2023-03-21T05:31:10.008Z,1.43
2023-03-21T05:33:39.331Z,0.93
2023-03-21T05:36:08.063Z,1.27
2023-03-21T05:38:36.046Z,1.10
2023-03-21T05:41:05.377Z,1.10
2023-03-21T05:43:33.605Z,1.10
2023-03-21T05:46:01.887Z,1.20
2023-03-21T05:48:32.391Z,1.07
2023-03-21T05:51:11.210Z,1.07
2023-03-21T05:53:39.377Z,1.13
2023-03-21T05:56:08.906Z,0.98
2023-03-21T05:58:59.614Z,0.93
2023-03-21T06:01:28.230Z,0.90
2023-03-21T06:04:08.686Z,1.00
2023-03-21T06:06:38.759Z,0.80
2023-03-21T06:09:06.799Z,1.27
2023-03-21T06:11:37.139Z,1.10
2023-03-21T06:14:28.297Z,0.93
2023-03-21T06:17:10.470Z,1.10
2023-03-21T06:19:44.714Z,0.90
2023-03-21T06:22:20.552Z,0.90
2023-03-21T06:24:48.721Z,1.00
2023-03-21T06:27:19.562Z,1.00
2023-03-21T06:29:54.129Z,1.10
2023-03-21T06:32:23.129Z,0.70
2023-03-21T06:34:56.281Z,0.90
2023-03-21T06:37:26.907Z,1.13
2023-03-21T06:39:55.720Z,1.10
2023-03-21T06:42:24.563Z,1.17
2023-03-21T06:44:57.390Z,1.00
2023-03-21T06:47:25.381Z,0.90
2023-03-21T06:49:53.262Z,0.73
2023-03-21T06:52:21.261Z,0.93
2023-03-21T06:54:52.062Z,1.02
2023-03-21T06:57:22.018Z,1.20
2023-03-21T06:59:51.115Z,1.08
2023-03-21T07:02:21.681Z,1.13
2023-03-21T07:05:02.334Z,1.03
2023-03-21T07:07:32.003Z,1.00
2023-03-21T07:10:01.332Z,1.10
2023-03-21T07:12:35.871Z,1.40
2023-03-21T07:15:25.020Z,1.80
2023-03-21T07:17:53.173Z,1.90
2023-03-21T07:20:21.142Z,1.67
2023-03-21T07:22:50.064Z,1.48
2023-03-21T07:25:20.578Z,1.92
2023-03-21T07:27:49.433Z,2.20
2023-03-21T07:30:17.870Z,2.60
2023-03-21T07:32:47.716Z,2.95
2023-03-21T07:35:18.630Z,2.55
2023-03-21T07:37:46.655Z,2.92
2023-03-21T07:40:17.478Z,2.53
2023-03-21T07:42:49.844Z,2.83
2023-03-21T07:45:28.938Z,2.47
2023-03-21T07:47:56.890Z,1.80
2023-03-21T07:50:25.157Z,2.17
2023-03-21T07:52:53.085Z,1.83
2023-03-21T07:55:21.411Z,2.08
2023-03-21T07:57:52.722Z,2.03
2023-03-21T08:00:23.846Z,1.88
2023-03-21T08:02:57.939Z,2.10
2023-03-21T08:05:29.267Z,1.90
2023-03-21T08:07:57.366Z,2.10
2023-03-21T08:10:25.344Z,1.90
2023-03-21T08:12:54.863Z,1.88
2023-03-21T08:15:23.122Z,1.73
2023-03-21T08:17:51.117Z,1.65
2023-03-21T08:20:22.029Z,1.35
2023-03-21T08:22:50.904Z,1.80
2023-03-21T08:25:20.319Z,1.25
2023-03-21T08:27:48.484Z,2.05
2023-03-21T08:30:19.932Z,2.08
2023-03-21T08:32:48.115Z,2.00
2023-03-21T08:35:18.856Z,1.80
2023-03-21T08:37:47.027Z,1.65
2023-03-21T08:40:17.011Z,1.83
2023-03-21T08:42:46.546Z,2.00
2023-03-21T08:45:16.122Z,1.63
2023-03-21T08:47:45.873Z,2.10
2023-03-21T08:50:16.361Z,1.60
2023-03-21T08:52:44.365Z,2.00
2023-03-21T08:55:13.742Z,1.95
2023-03-21T08:57:41.798Z,2.00
2023-03-21T09:00:14.666Z,2.00
2023-03-21T09:02:43.828Z,2.13
2023-03-21T09:05:13.705Z,2.25
2023-03-21T09:07:42.849Z,2.40
2023-03-21T09:10:22.182Z,2.55
2023-03-21T09:12:51.691Z,2.10
2023-03-21T09:15:21.821Z,2.05
2023-03-21T09:17:52.556Z,1.67
2023-03-21T09:20:30.491Z,2.00
2023-03-21T09:22:58.797Z,1.88
2023-03-21T09:25:31.378Z,1.90
2023-03-21T09:28:00.379Z,2.00
2023-03-21T09:30:28.708Z,1.70
2023-03-21T09:32:56.989Z,1.90
2023-03-21T09:35:27.125Z,1.98
2023-03-21T09:37:58.994Z,1.80
2023-03-21T09:40:41.570Z,1.90
2023-03-21T09:43:21.935Z,1.65
2023-03-21T09:45:56.167Z,1.80
2023-03-21T09:48:39.675Z,1.73
2023-03-21T09:51:18.035Z,2.17
2023-03-21T09:53:50.151Z,1.70
2023-03-21T09:56:19.172Z,1.58
2023-03-21T09:58:53.102Z,1.77
2023-03-21T10:01:28.378Z,2.00
2023-03-21T10:03:58.968Z,1.80
2023-03-21T10:06:30.572Z,1.77
2023-03-21T10:09:01.807Z,2.15
2023-03-21T10:14:06.866Z,1.85
2023-03-21T10:16:38.603Z,1.40
2023-03-21T10:19:13.004Z,1.23
2023-03-21T10:22:03.328Z,1.70
2023-03-21T10:24:34.541Z,1.75
2023-03-21T10:27:04.528Z,1.60
2023-03-21T10:29:38.056Z,1.20
2023-03-21T10:32:09.786Z,1.33
2023-03-21T10:34:41.816Z,1.67
2023-03-21T10:37:14.008Z,1.50
2023-03-21T10:39:44.639Z,1.73
2023-03-21T10:42:20.319Z,1.88
2023-03-21T10:44:49.916Z,1.70
2023-03-21T10:47:22.103Z,2.00
2023-03-21T10:50:06.885Z,2.55
2023-03-21T10:52:39.315Z,2.60
2023-03-21T10:55:19.120Z,1.85
2023-03-21T10:57:47.936Z,2.05
2023-03-21T11:00:22.542Z,1.80
2023-03-21T11:02:52.768Z,1.30
2023-03-21T11:05:24.090Z,1.55
2023-03-21T11:08:01.489Z,1.48
2023-03-21T11:10:32.528Z,1.23
2023-03-21T11:13:06.503Z,1.02
2023-03-21T11:15:42.406Z,1.20
2023-03-21T11:18:20.800Z,1.40
2023-03-21T11:20:54.484Z,1.80
2023-03-21T11:23:28.115Z,1.15
2023-03-21T11:25:58.300Z,1.42
2023-03-21T11:28:33.302Z,1.52
2023-03-21T11:31:03.515Z,1.00
2023-03-21T11:33:35.583Z,1.52
2023-03-21T11:36:06.052Z,1.38
2023-03-21T11:38:38.913Z,1.90
2023-03-21T11:41:07.617Z,1.63
2023-03-21T11:43:37.721Z,1.75
2023-03-21T11:46:11.029Z,1.92
2023-03-21T11:48:42.472Z,1.33
2023-03-21T11:51:22.391Z,1.95
2023-03-21T11:54:01.092Z,1.75
2023-03-21T11:56:33.332Z,1.80
2023-03-21T11:59:15.989Z,1.70
2023-03-21T12:01:57.290Z,1.70
2023-03-21T12:04:42.394Z,1.23
2023-03-21T12:07:40.422Z,1.50
2023-03-21T12:10:28.237Z,1.17
2023-03-21T12:13:06.505Z,0.90
2023-03-21T12:15:40.718Z,0.80
2023-03-21T12:18:35.227Z,0.80
2023-03-21T12:21:08.125Z,0.90
2023-03-21T12:23:55.938Z,0.52
2023-03-21T12:26:28.231Z,0.80
2023-03-21T12:29:27.977Z,0.40
2023-03-21T12:32:06.107Z,0.60
2023-03-21T12:34:58.749Z,0.60
2023-03-21T12:37:38.256Z,0.90
2023-03-21T12:40:18.448Z,0.60
2023-03-21T12:43:20.738Z,0.98
2023-03-21T12:45:53.247Z,0.57
2023-03-21T12:48:28.977Z,0.77
2023-03-21T12:51:02.170Z,0.88
2023-03-21T12:53:53.099Z,0.90
2023-03-21T12:56:24.900Z,0.90
2023-03-21T12:58:59.000Z,0.88
2023-03-21T13:01:31.452Z,0.80
2023-03-21T13:04:10.589Z,0.80
2023-03-21T13:06:39.718Z,0.90
2023-03-21T13:09:16.067Z,0.70
2023-03-21T13:11:46.914Z,0.60
2023-03-21T13:14:20.404Z,0.80
2023-03-21T13:16:56.110Z,1.00
2023-03-21T13:19:31.091Z,0.90
2023-03-21T13:22:08.126Z,0.60
2023-03-21T13:24:43.731Z,0.80
2023-03-21T13:27:24.829Z,0.50
2023-03-21T13:29:55.391Z,0.70
2023-03-21T13:32:31.099Z,0.93
2023-03-21T13:35:01.916Z,0.70
2023-03-21T13:37:33.821Z,0.65
2023-03-21T13:40:09.356Z,0.70
2023-03-21T13:42:45.086Z,0.82
2023-03-21T13:45:23.757Z,0.63
2023-03-21T13:47:57.554Z,0.75
2023-03-21T13:50:36.537Z,0.77
2023-03-21T13:53:39.055Z,0.80
2023-03-21T13:56:22.075Z,0.80
2023-03-21T13:58:55.585Z,0.88
2023-03-21T14:01:29.191Z,0.90
2023-03-21T14:04:07.433Z,0.85
2023-03-21T14:06:42.847Z,0.63
2023-03-21T14:09:16.082Z,0.75
2023-03-21T14:11:47.066Z,0.75
2023-03-21T14:14:15.869Z,0.68
2023-03-21T14:16:45.578Z,0.93
2023-03-21T14:19:14.977Z,0.70
2023-03-21T14:21:50.389Z,0.77
2023-03-21T14:24:19.575Z,0.68
2023-03-21T14:26:50.387Z,0.90
2023-03-21T14:29:26.584Z,0.73
2023-03-21T14:31:56.258Z,0.60
2023-03-21T14:34:28.299Z,0.60
2023-03-21T14:36:58.686Z,0.70
2023-03-21T14:39:29.894Z,0.68
2023-03-21T14:42:03.460Z,0.68
2023-03-21T14:44:44.209Z,0.77
2023-03-21T14:47:22.863Z,0.75
2023-03-21T14:49:52.374Z,0.50
2023-03-21T14:52:24.990Z,0.70
2023-03-21T14:54:54.419Z,0.68
2023-03-21T14:57:26.187Z,0.68
2023-03-21T14:59:56.185Z,0.65
2023-03-21T15:02:27.572Z,0.77
2023-03-21T15:04:59.250Z,0.82
2023-03-21T15:07:30.358Z,0.80
2023-03-21T15:10:02.078Z,0.65
2023-03-21T15:12:30.013Z,0.85
2023-03-21T15:14:58.270Z,0.90
2023-03-21T15:17:27.509Z,1.00
2023-03-21T15:19:56.824Z,0.63
2023-03-21T15:22:31.787Z,0.95
2023-03-21T15:25:02.908Z,1.02
2023-03-21T15:27:34.175Z,0.80
2023-03-21T15:30:02.202Z,1.00
2023-03-21T15:32:30.464Z,0.57
2023-03-21T15:35:08.111Z,0.80
2023-03-21T15:37:38.029Z,0.80
2023-03-21T15:40:11.440Z,0.90
2023-03-21T15:42:41.329Z,0.82
2023-03-21T15:45:18.113Z,0.75
2023-03-21T15:47:54.261Z,0.50
2023-03-21T15:50:35.502Z,0.90
2023-03-21T15:53:07.669Z,1.00
2023-03-21T15:55:43.624Z,1.00
2023-03-21T15:58:18.122Z,0.95
2023-03-21T16:00:54.733Z,0.93
2023-03-21T16:03:27.287Z,0.95
2023-03-21T16:06:11.039Z,0.85
2023-03-21T16:08:44.656Z,0.63
2023-03-21T16:11:18.882Z,0.95
2023-03-21T16:13:46.951Z,0.70
2023-03-21T16:16:17.969Z,1.10
2023-03-21T16:18:45.978Z,1.20
2023-03-21T16:21:18.182Z,0.90
2023-03-21T16:23:46.358Z,0.80
2023-03-21T16:26:16.498Z,0.77
2023-03-21T16:28:45.003Z,0.70
2023-03-21T16:31:15.539Z,0.80
2023-03-21T16:33:44.010Z,0.77
2023-03-21T16:36:17.893Z,0.88
2023-03-21T16:38:47.025Z,1.10
2023-03-21T16:41:15.791Z,1.15
2023-03-21T16:43:44.038Z,1.02
2023-03-21T16:46:14.784Z,1.30
2023-03-21T16:48:43.653Z,1.02
2023-03-21T16:51:16.128Z,1.00
2023-03-21T16:53:44.179Z,0.98
2023-03-21T16:56:16.518Z,1.15
2023-03-21T16:58:44.869Z,1.00
2023-03-21T17:01:19.183Z,0.90
2023-03-21T17:03:47.769Z,1.00
2023-03-21T17:06:19.254Z,1.10
2023-03-21T17:08:47.887Z,1.10
2023-03-21T17:11:20.022Z,0.90
2023-03-21T17:13:48.514Z,0.90
2023-03-21T17:16:18.441Z,1.17
2023-03-21T17:18:46.632Z,1.45
2023-03-21T17:21:17.825Z,1.30
2023-03-21T17:23:46.164Z,1.65
2023-03-21T17:26:15.067Z,1.50
2023-03-21T17:28:43.118Z,1.52
2023-03-21T17:31:14.896Z,1.67
2023-03-21T17:33:43.151Z,1.70
2023-03-21T17:36:15.028Z,1.10
2023-03-21T17:38:45.853Z,1.50
2023-03-21T17:41:14.821Z,1.35
2023-03-21T17:43:42.851Z,1.48
2023-03-21T17:46:14.125Z,1.40
2023-03-21T17:48:42.237Z,1.35
2023-03-21T17:51:12.785Z,1.40
2023-03-21T17:53:40.776Z,1.52
2023-03-21T17:56:25.818Z,1.15
2023-03-21T17:58:54.224Z,1.60
2023-03-21T18:01:23.316Z,1.40
2023-03-21T18:03:51.432Z,1.33
2023-03-21T18:06:21.708Z,1.27
2023-03-21T18:08:51.120Z,1.50
2023-03-21T18:11:22.166Z,1.60
2023-03-21T18:13:50.173Z,1.75
2023-03-21T18:16:19.801Z,1.38
2023-03-21T18:18:47.830Z,1.50
2023-03-21T18:21:18.918Z,1.40
2023-03-21T18:23:48.654Z,1.45
2023-03-21T18:26:18.988Z,1.60
2023-03-21T18:29:34.246Z,1.40
2023-03-21T18:31:38.236Z,1.40
2023-03-21T18:34:06.211Z,1.17
2023-03-21T18:36:34.580Z,1.63
2023-03-21T18:39:05.084Z,1.77
2023-03-21T18:41:33.036Z,1.40
2023-03-21T18:44:14.826Z,1.42
2023-03-21T18:46:48.186Z,1.40
2023-03-21T18:52:05.551Z,1.50
2023-03-21T18:54:33.971Z,1.88
2023-03-21T18:59:52.038Z,1.58
2023-03-21T19:02:20.059Z,1.30
2023-03-21T19:04:47.988Z,1.40
2023-03-21T19:07:16.559Z,1.50
2023-03-21T19:10:09.409Z,1.55
2023-03-21T19:12:33.222Z,1.38
2023-03-21T19:15:02.505Z,1.58
2023-03-21T19:20:19.651Z,1.55
2023-03-21T19:22:47.972Z,1.30
2023-03-21T19:25:17.138Z,1.33
2023-03-21T19:27:45.769Z,1.60
2023-03-21T19:30:16.506Z,1.40
2023-03-21T19:32:45.027Z,1.30
2023-03-21T19:35:14.257Z,1.42
2023-03-21T19:37:42.307Z,1.33
2023-03-21T19:40:11.196Z,1.48
2023-03-21T19:42:39.326Z,1.42
2023-03-21T19:45:08.357Z,1.40
2023-03-21T19:47:37.670Z,1.40
2023-03-21T19:52:54.170Z,1.52
2023-03-21T19:55:22.107Z,1.50
2023-03-21T19:57:50.288Z,1.52
2023-03-21T20:00:21.021Z,1.85
2023-03-21T20:02:51.637Z,1.45
2023-03-21T20:05:20.567Z,1.40
2023-03-21T20:07:48.897Z,1.45
2023-03-21T20:10:16.864Z,1.30
2023-03-21T20:12:44.764Z,1.75
2023-03-21T20:15:19.137Z,1.70
2023-03-21T20:17:50.923Z,1.42
2023-03-21T20:20:19.835Z,1.65
2023-03-21T20:23:11.005Z,1.35
2023-03-21T20:25:43.125Z,1.60
2023-03-21T20:28:28.152Z,1.70
2023-03-21T20:31:00.281Z,1.50
2023-03-21T20:33:30.418Z,1.77
2023-03-21T20:38:51.433Z,1.73
2023-03-21T20:41:19.742Z,1.77
2023-03-21T20:44:28.490Z,1.58
2023-03-21T20:46:37.704Z,1.70
2023-03-21T20:49:07.717Z,1.92
2023-03-21T20:54:24.149Z,1.58
2023-03-21T20:56:52.172Z,1.60
2023-03-21T20:59:26.629Z,1.48
2023-03-21T21:01:57.191Z,1.85
2023-03-21T21:07:18.169Z,2.35
2023-03-21T21:09:46.978Z,1.83
2023-03-21T21:12:16.441Z,1.45
2023-03-21T21:14:45.549Z,1.98
2023-03-21T21:20:12.305Z,2.22
2023-03-21T21:22:42.851Z,1.73
2023-03-21T21:25:14.308Z,1.88
2023-03-21T21:27:52.632Z,1.58
2023-03-21T21:30:21.207Z,1.65
2023-03-21T21:32:49.538Z,1.63
2023-03-21T21:35:20.559Z,1.85
2023-03-21T21:37:48.876Z,1.70
2023-03-21T21:40:20.516Z,1.80
2023-03-21T21:42:48.760Z,1.67
2023-03-21T21:45:16.981Z,1.42
2023-03-21T21:47:45.909Z,1.58
2023-03-21T21:50:14.434Z,1.35
2023-03-21T21:52:52.481Z,1.52
2023-03-21T21:55:20.528Z,1.50
2023-03-21T21:57:50.225Z,1.38
2023-03-21T22:00:20.265Z,1.33
2023-03-21T22:02:48.284Z,1.40
2023-03-21T22:05:16.508Z,1.27
2023-03-21T22:07:46.525Z,1.58
2023-03-21T22:10:14.709Z,1.70
2023-03-21T22:12:42.742Z,1.63
2023-03-21T22:15:12.191Z,1.55
2023-03-21T22:17:40.683Z,1.35
2023-03-21T22:20:12.086Z,1.25
2023-03-21T22:22:40.380Z,1.60
2023-03-21T22:25:12.762Z,1.20
2023-03-21T22:27:41.071Z,1.33
2023-03-21T22:30:13.730Z,1.35
2023-03-21T22:32:42.611Z,1.70
2023-03-21T22:35:11.590Z,1.38
2023-03-21T22:37:41.949Z,1.52
2023-03-21T22:40:13.746Z,1.40
2023-03-21T22:42:42.398Z,1.40
2023-03-21T22:45:12.328Z,1.40
2023-03-21T22:47:40.774Z,1.27
2023-03-21T22:50:09.825Z,1.70
2023-03-21T22:52:37.765Z,1.60
2023-03-21T22:55:07.076Z,1.40
2023-03-21T22:57:36.397Z,1.65
2023-03-21T23:00:13.052Z,2.00
2023-03-21T23:02:41.530Z,1.50
2023-03-21T23:05:09.779Z,1.73
2023-03-21T23:07:37.743Z,1.83
2023-03-21T23:10:06.313Z,1.50
2023-03-21T23:12:34.344Z,1.67
2023-03-21T23:15:03.572Z,1.73
2023-03-21T23:17:33.790Z,1.92
2023-03-21T23:20:02.101Z,1.70
2023-03-21T23:22:31.394Z,1.48
2023-03-21T23:24:59.406Z,1.42
2023-03-21T23:27:27.688Z,1.70
2023-03-21T23:29:56.647Z,1.80
2023-03-21T23:32:25.963Z,1.80
2023-03-21T23:34:55.401Z,1.73
2023-03-21T23:37:24.924Z,1.63
2023-03-21T23:39:55.186Z,1.60
2023-03-21T23:42:23.151Z,1.75
2023-03-21T23:44:51.038Z,1.45
2023-03-21T23:47:18.943Z,1.20
2023-03-21T23:49:50.115Z,1.50
2023-03-21T23:52:18.147Z,1.25
2023-03-21T23:54:46.239Z,1.73
2023-03-21T23:57:14.166Z,1.55
2023-03-21T23:59:42.048Z,1.38
